createdAt,value
2022-10-11T00:01:22.209Z,2.92
2022-10-11T00:03:48.947Z,3.45
2022-10-11T00:08:41.962Z,3.58
2022-10-11T00:11:08.661Z,2.40
2022-10-11T00:16:08.108Z,2.75
2022-10-11T00:18:34.991Z,3.92
2022-10-11T00:21:11.855Z,3.05
2022-10-11T00:23:39.532Z,2.35
2022-10-11T00:26:08.422Z,3.00
2022-10-11T00:28:36.556Z,2.92
2022-10-11T00:31:07.749Z,3.10
2022-10-11T00:33:34.676Z,3.13
2022-10-11T00:38:28.259Z,2.80
2022-10-11T00:40:54.973Z,3.00
2022-10-11T00:45:55.544Z,2.92
2022-10-11T00:48:27.800Z,2.75
2022-10-11T00:50:57.182Z,3.08
2022-10-11T00:53:24.541Z,2.42
2022-10-11T00:55:55.990Z,2.60
2022-10-11T00:58:23.513Z,3.00
2022-10-11T01:00:50.849Z,3.08
2022-10-11T01:03:21.517Z,2.33
2022-10-11T01:05:48.234Z,3.47
2022-10-11T01:10:41.251Z,3.00
2022-10-11T01:13:33.650Z,2.38
2022-10-11T01:16:04.664Z,3.28
2022-10-11T01:18:44.006Z,2.50
2022-10-11T01:21:22.459Z,2.55
2022-10-11T01:24:19.970Z,2.90
2022-10-11T01:27:15.801Z,3.27
2022-10-11T01:29:57.410Z,2.85
2022-10-11T01:32:51.799Z,2.50
2022-10-11T01:35:27.962Z,2.83
2022-10-11T01:38:02.828Z,2.50
2022-10-11T01:40:37.066Z,2.22
2022-10-11T01:43:04.907Z,3.38
2022-10-11T01:45:33.778Z,3.08
2022-10-11T01:48:10.242Z,2.97
2022-10-11T01:50:47.948Z,2.37
2022-10-11T01:53:35.932Z,2.58
2022-10-11T01:56:10.337Z,3.20
2022-10-11T01:59:01.260Z,2.67
2022-10-11T02:01:52.754Z,3.13
2022-10-11T02:04:25.621Z,3.30
2022-10-11T02:07:06.576Z,2.70
2022-10-11T02:09:48.515Z,2.72
2022-10-11T02:12:23.979Z,3.05
2022-10-11T02:14:54.203Z,3.03
2022-10-11T02:17:25.547Z,2.60
2022-10-11T02:19:54.579Z,2.97
2022-10-11T02:22:32.619Z,2.85
2022-10-11T02:25:02.301Z,3.00
2022-10-11T02:27:33.111Z,2.95
2022-10-11T02:30:02.842Z,3.28
2022-10-11T02:32:31.511Z,2.63
2022-10-11T02:35:00.940Z,2.58
2022-10-11T02:37:41.148Z,3.45
2022-10-11T02:40:20.844Z,2.45
2022-10-11T02:43:04.024Z,2.90
2022-10-11T02:45:36.320Z,2.55
2022-10-11T02:48:04.580Z,2.63
2022-10-11T02:50:32.037Z,3.13
2022-10-11T02:52:58.801Z,2.83
2022-10-11T02:57:51.786Z,2.65
2022-10-11T03:00:18.380Z,2.78
2022-10-11T03:02:45.024Z,2.70
2022-10-11T03:05:11.641Z,2.33
2022-10-11T03:07:38.264Z,3.03
2022-10-11T03:10:05.750Z,2.90
2022-10-11T03:12:32.414Z,2.85
2022-10-11T03:17:36.205Z,3.17
2022-10-11T03:20:05.102Z,2.67
2022-10-11T03:22:31.691Z,2.22
2022-10-11T03:25:03.355Z,2.75
2022-10-11T03:27:30.979Z,2.70
2022-10-11T03:32:24.852Z,2.83
2022-10-11T03:34:51.386Z,3.35
2022-10-11T03:37:18.375Z,2.85
2022-10-11T03:39:45.932Z,2.70
2022-10-11T03:42:13.578Z,2.72
2022-10-11T03:44:41.754Z,3.30
2022-10-11T03:47:08.668Z,3.55
2022-10-11T03:49:37.716Z,3.33
2022-10-11T03:52:08.028Z,3.17
2022-10-11T03:57:00.996Z,2.85
2022-10-11T03:59:27.491Z,3.20
2022-10-11T04:01:54.319Z,3.03
2022-10-11T04:04:20.938Z,3.47
2022-10-11T04:06:47.464Z,3.85
2022-10-11T04:09:14.015Z,2.85
2022-10-11T04:11:40.622Z,2.97
2022-10-11T04:14:07.163Z,3.03
2022-10-11T04:16:34.201Z,3.40
2022-10-11T04:19:00.893Z,2.47
2022-10-11T04:23:54.873Z,2.97
2022-10-11T04:26:21.430Z,2.47
2022-10-11T04:28:48.048Z,3.55
2022-10-11T04:33:41.166Z,2.35
2022-10-11T04:36:08.552Z,2.65
2022-10-11T04:38:35.410Z,2.95
2022-10-11T04:43:35.937Z,2.40
2022-10-11T04:46:03.141Z,2.88
2022-10-11T04:48:29.985Z,2.85
2022-10-11T04:50:56.536Z,3.00
2022-10-11T04:56:01.925Z,2.70
2022-10-11T04:58:30.367Z,5.05
2022-10-11T05:00:57.006Z,4.00
2022-10-11T05:05:50.877Z,3.72
2022-10-11T05:08:17.487Z,3.33
2022-10-11T05:13:20.614Z,2.92
2022-10-11T05:15:47.159Z,4.82
2022-10-11T05:18:13.681Z,3.35
2022-10-11T05:20:41.047Z,3.97
2022-10-11T05:23:08.574Z,3.92
2022-10-11T05:25:35.246Z,2.70
2022-10-11T05:30:28.162Z,3.00
2022-10-11T05:32:54.746Z,3.63
2022-10-11T05:35:21.282Z,3.88
2022-10-11T05:37:47.870Z,3.53
2022-10-11T05:40:14.358Z,3.50
2022-10-11T05:42:40.972Z,3.33
2022-10-11T05:45:08.143Z,3.20
2022-10-11T05:52:45.921Z,2.55
2022-10-11T05:57:38.908Z,3.00
2022-10-11T06:00:06.282Z,2.83
2022-10-11T06:02:34.134Z,2.80
2022-10-11T06:05:00.617Z,2.53
2022-10-11T06:07:27.185Z,3.00
2022-10-11T06:09:53.596Z,2.92
2022-10-11T06:12:21.681Z,3.60
2022-10-11T06:14:48.145Z,2.70
2022-10-11T06:17:14.579Z,3.00
2022-10-11T06:19:40.995Z,2.75
2022-10-11T06:22:10.268Z,2.95
2022-10-11T06:24:36.719Z,3.20
2022-10-11T06:27:03.249Z,3.17
2022-10-11T06:29:29.707Z,2.88
2022-10-11T06:31:56.165Z,2.40
2022-10-11T06:34:22.823Z,2.33
2022-10-11T06:39:15.695Z,3.78
2022-10-11T06:41:42.311Z,2.17
2022-10-11T06:46:41.318Z,2.10
2022-10-11T06:49:08.375Z,2.97
2022-10-11T06:51:35.979Z,2.50
2022-10-11T06:54:03.496Z,2.13
2022-10-11T06:56:31.252Z,2.70
2022-10-11T06:58:59.544Z,3.13
2022-10-11T07:01:26.613Z,2.30
2022-10-11T07:03:55.359Z,2.78
2022-10-11T07:06:24.345Z,3.20
2022-10-11T07:08:50.919Z,3.28
2022-10-11T07:13:59.215Z,2.88
2022-10-11T07:16:26.670Z,4.05
2022-10-11T07:19:00.408Z,3.33
2022-10-11T07:21:30.151Z,3.13
2022-10-11T07:23:56.680Z,3.92
2022-10-11T07:26:23.230Z,3.10
2022-10-11T07:28:49.760Z,3.70
2022-10-11T07:33:45.331Z,4.57
2022-10-11T07:36:12.867Z,4.95
2022-10-11T07:38:44.517Z,5.93
2022-10-11T07:41:11.428Z,5.30
2022-10-11T07:43:38.556Z,5.38
2022-10-11T07:46:06.137Z,6.35
2022-10-11T07:48:34.934Z,3.92
2022-10-11T07:51:16.653Z,4.93
2022-10-11T07:53:45.438Z,3.80
2022-10-11T07:56:14.607Z,3.28
2022-10-11T07:58:42.681Z,3.92
2022-10-11T08:01:10.979Z,3.05
2022-10-11T08:03:38.641Z,2.80
2022-10-11T08:06:08.475Z,3.08
2022-10-11T08:08:36.463Z,2.55
2022-10-11T08:11:04.087Z,3.05
2022-10-11T08:13:30.933Z,2.88
2022-10-11T08:15:57.853Z,2.55
2022-10-11T08:18:24.872Z,2.63
2022-10-11T08:20:51.578Z,2.60
2022-10-11T08:23:18.907Z,2.78
2022-10-11T08:25:47.272Z,2.40
2022-10-11T08:28:17.890Z,3.22
2022-10-11T08:30:52.699Z,2.30
2022-10-11T08:33:21.256Z,2.20
2022-10-11T08:35:49.079Z,2.30
2022-10-11T08:38:16.770Z,2.30
2022-10-11T08:40:48.401Z,2.13
2022-10-11T08:43:29.551Z,2.92
2022-10-11T08:46:00.115Z,2.00
2022-10-11T08:48:55.167Z,1.95
2022-10-11T08:51:50.901Z,2.80
2022-10-11T08:54:32.141Z,2.30
2022-10-11T08:57:00.590Z,3.85
2022-10-11T08:59:39.804Z,2.13
2022-10-11T09:02:43.619Z,2.10
2022-10-11T09:05:18.434Z,2.30
2022-10-11T09:08:03.595Z,2.35
2022-10-11T09:10:58.027Z,2.10
2022-10-11T09:13:41.677Z,2.65
2022-10-11T09:16:17.806Z,2.40
2022-10-11T09:19:15.718Z,2.00
2022-10-11T09:21:56.626Z,2.17
2022-10-11T09:24:31.078Z,1.77
2022-10-11T09:27:01.514Z,2.00
2022-10-11T09:29:46.746Z,2.00
2022-10-11T09:32:16.333Z,2.03
2022-10-11T09:34:43.523Z,2.33
2022-10-11T09:37:24.970Z,2.53
2022-10-11T09:40:16.211Z,2.47
2022-10-11T09:42:42.618Z,1.80
2022-10-11T09:45:19.106Z,2.17
2022-10-11T09:47:46.493Z,2.47
2022-10-11T09:50:26.265Z,2.20
2022-10-11T09:52:55.660Z,2.30
2022-10-11T09:55:36.468Z,2.00
2022-10-11T09:58:05.162Z,2.10
2022-10-11T10:00:33.900Z,2.08
2022-10-11T10:03:04.575Z,2.10
2022-10-11T10:05:37.024Z,1.70
2022-10-11T10:08:24.486Z,2.17
2022-10-11T10:10:59.406Z,1.95
2022-10-11T10:13:47.842Z,2.30
2022-10-11T10:16:44.114Z,2.78
2022-10-11T10:19:21.673Z,1.75
2022-10-11T10:21:51.226Z,2.90
2022-10-11T10:24:32.711Z,2.08
2022-10-11T10:27:11.182Z,2.13
2022-10-11T10:29:37.998Z,2.03
2022-10-11T10:32:15.188Z,1.85
2022-10-11T10:34:57.306Z,1.98
2022-10-11T10:37:32.070Z,2.17
2022-10-11T10:40:25.291Z,1.60
2022-10-11T10:42:52.599Z,2.15
2022-10-11T10:45:25.131Z,1.75
2022-10-11T10:48:26.965Z,1.77
2022-10-11T10:51:07.087Z,2.30
2022-10-11T10:53:44.450Z,1.52
2022-10-11T10:56:17.835Z,2.15
2022-10-11T10:59:05.624Z,1.88
2022-10-11T11:01:36.154Z,2.53
2022-10-11T11:04:07.912Z,2.20
2022-10-11T11:06:37.436Z,1.50
2022-10-11T11:09:28.282Z,1.70
2022-10-11T11:12:16.580Z,2.33
2022-10-11T11:15:02.421Z,1.63
2022-10-11T11:17:47.176Z,2.08
2022-10-11T11:20:41.965Z,2.08
2022-10-11T11:23:32.064Z,2.25
2022-10-11T11:26:32.850Z,1.73
2022-10-11T11:29:38.512Z,2.17
2022-10-11T11:32:31.212Z,1.70
2022-10-11T11:35:02.755Z,1.23
2022-10-11T11:37:42.694Z,1.75
2022-10-11T11:40:49.238Z,1.70
2022-10-11T11:43:21.744Z,1.50
2022-10-11T11:45:54.747Z,1.58
2022-10-11T11:48:26.579Z,1.70
2022-10-11T11:51:07.519Z,2.53
2022-10-11T11:53:48.297Z,1.30
2022-10-11T11:56:27.752Z,1.75
2022-10-11T11:59:12.961Z,1.80
2022-10-11T12:01:45.897Z,1.67
2022-10-11T12:04:31.902Z,1.50
2022-10-11T12:07:15.364Z,1.48
2022-10-11T12:09:45.642Z,1.45
2022-10-11T12:12:36.562Z,1.50
2022-10-11T12:15:09.147Z,1.52
2022-10-11T12:17:59.188Z,1.67
2022-10-11T12:20:31.626Z,1.92
2022-10-11T12:23:00.417Z,1.95
2022-10-11T12:25:26.922Z,1.45
2022-10-11T12:27:55.753Z,1.75
2022-10-11T12:30:43.877Z,1.77
2022-10-11T12:33:23.661Z,1.55
2022-10-11T12:35:53.236Z,1.83
2022-10-11T12:38:22.504Z,1.75
2022-10-11T12:40:54.921Z,1.45
2022-10-11T12:43:29.108Z,1.90
2022-10-11T12:45:55.895Z,2.10
2022-10-11T12:48:48.353Z,1.70
2022-10-11T12:51:31.585Z,1.77
2022-10-11T12:54:25.525Z,1.67
2022-10-11T12:57:00.498Z,1.50
2022-10-11T12:59:27.197Z,2.10
2022-10-11T13:01:56.265Z,1.77
2022-10-11T13:04:26.908Z,1.55
2022-10-11T13:06:57.013Z,1.75
2022-10-11T13:09:48.768Z,1.60
2022-10-11T13:12:21.821Z,2.08
2022-10-11T13:15:00.737Z,1.77
2022-10-11T13:17:38.031Z,1.83
2022-10-11T13:20:19.178Z,1.73
2022-10-11T13:22:49.651Z,1.48
2022-10-11T13:25:20.587Z,1.70
2022-10-11T13:27:49.392Z,1.95
2022-10-11T13:30:31.445Z,1.60
2022-10-11T13:32:59.476Z,1.60
2022-10-11T13:35:31.604Z,1.50
2022-10-11T13:37:58.440Z,1.77
2022-10-11T13:40:25.759Z,1.80
2022-10-11T13:42:54.280Z,1.98
2022-10-11T13:45:26.099Z,1.50
2022-10-11T13:47:54.450Z,2.10
2022-10-11T13:50:32.143Z,1.75
2022-10-11T13:53:03.272Z,1.70
2022-10-11T13:55:47.452Z,1.58
2022-10-11T13:58:34.320Z,1.88
2022-10-11T14:01:03.527Z,1.70
2022-10-11T14:03:44.601Z,1.45
2022-10-11T14:06:11.417Z,1.48
2022-10-11T14:08:43.422Z,1.77
2022-10-11T14:11:12.101Z,1.50
2022-10-11T14:13:43.541Z,1.60
2022-10-11T14:16:14.538Z,1.70
2022-10-11T14:18:49.833Z,1.30
2022-10-11T14:21:19.033Z,1.50
2022-10-11T14:24:07.647Z,1.65
2022-10-11T14:26:40.827Z,1.30
2022-10-11T14:29:19.351Z,1.55
2022-10-11T14:31:46.350Z,1.80
2022-10-11T14:34:18.371Z,1.70
2022-10-11T14:36:44.894Z,1.42
2022-10-11T14:39:15.627Z,1.60
2022-10-11T14:41:42.159Z,1.67
2022-10-11T14:44:08.582Z,2.28
2022-10-11T14:46:38.765Z,2.00
2022-10-11T14:49:17.201Z,1.75
2022-10-11T14:51:45.057Z,1.70
2022-10-11T14:54:12.446Z,1.65
2022-10-11T14:56:38.934Z,1.75
2022-10-11T14:59:06.775Z,1.60
2022-10-11T15:01:33.297Z,1.88
2022-10-11T15:03:59.723Z,1.80
2022-10-11T15:06:30.353Z,1.50
2022-10-11T15:08:56.878Z,1.80
2022-10-11T15:11:24.198Z,2.00
2022-10-11T15:13:50.715Z,1.63
2022-10-11T15:16:19.874Z,1.83
2022-10-11T15:18:51.852Z,2.08
2022-10-11T15:21:21.266Z,2.20
2022-10-11T15:23:47.842Z,1.83
2022-10-11T15:26:19.604Z,1.67
2022-10-11T15:28:46.797Z,1.70
2022-10-11T15:31:13.750Z,1.88
2022-10-11T15:33:40.665Z,1.92
2022-10-11T15:36:12.248Z,1.67
2022-10-11T15:38:39.335Z,1.50
2022-10-11T15:41:06.145Z,1.65
2022-10-11T15:43:32.616Z,1.98
2022-10-11T15:45:59.209Z,1.70
2022-10-11T15:48:26.896Z,2.10
2022-10-11T15:50:54.426Z,1.88
2022-10-11T15:53:28.671Z,1.88
2022-10-11T15:55:57.349Z,1.75
2022-10-11T15:58:32.833Z,2.72
2022-10-11T16:01:05.482Z,1.70
2022-10-11T16:03:33.320Z,1.75
2022-10-11T16:06:04.838Z,2.28
2022-10-11T16:08:33.832Z,1.80
2022-10-11T16:11:00.832Z,2.65
2022-10-11T16:13:27.345Z,2.75
2022-10-11T16:15:53.806Z,2.28
2022-10-11T16:20:51.367Z,3.20
2022-10-11T16:23:19.955Z,2.38
2022-10-11T16:25:55.501Z,2.50
2022-10-11T16:28:21.996Z,2.60
2022-10-11T16:30:48.608Z,3.13
2022-10-11T16:33:15.035Z,2.30
2022-10-11T16:38:12.120Z,2.90
2022-10-11T16:40:40.164Z,3.20
2022-10-11T16:43:07.942Z,3.25
2022-10-11T16:45:35.137Z,2.95
2022-10-11T16:48:01.665Z,3.42
2022-10-11T16:52:55.964Z,3.75
2022-10-11T16:55:22.823Z,2.45
2022-10-11T16:57:49.283Z,2.50
2022-10-11T17:00:16.108Z,2.65
2022-10-11T17:02:42.585Z,2.42
2022-10-11T17:07:35.621Z,3.20
2022-10-11T17:12:29.082Z,3.40
2022-10-11T17:14:56.258Z,2.53
2022-10-11T17:17:22.719Z,2.95
2022-10-11T17:19:49.343Z,2.58
2022-10-11T17:22:18.907Z,2.80
2022-10-11T17:24:45.950Z,2.80
2022-10-11T17:27:12.978Z,3.25
2022-10-11T17:29:39.432Z,2.90
2022-10-11T17:32:06.296Z,3.50
2022-10-11T17:34:32.808Z,3.25
2022-10-11T17:36:59.245Z,3.38
2022-10-11T17:39:25.894Z,4.25
2022-10-11T17:44:19.582Z,2.95
2022-10-11T17:46:47.331Z,2.92
2022-10-11T17:49:14.131Z,2.70
2022-10-11T17:51:41.624Z,3.25
2022-10-11T17:54:12.682Z,2.92
2022-10-11T17:56:41.590Z,2.38
2022-10-11T17:59:14.443Z,2.92
2022-10-11T18:01:41.138Z,3.22
2022-10-11T18:04:13.437Z,3.30
2022-10-11T18:06:39.993Z,3.17
2022-10-11T18:09:07.225Z,3.88
2022-10-11T18:11:33.900Z,2.90
2022-10-11T18:16:28.621Z,2.58
2022-10-11T18:18:57.446Z,3.15
2022-10-11T18:21:33.684Z,2.70
2022-10-11T18:24:02.053Z,2.40
2022-10-11T18:26:30.642Z,2.30
2022-10-11T18:28:58.025Z,2.83
2022-10-11T18:31:27.461Z,2.30
2022-10-11T18:33:54.639Z,2.30
2022-10-11T18:36:24.661Z,2.22
2022-10-11T18:38:56.677Z,2.50
2022-10-11T18:41:30.381Z,2.10
2022-10-11T18:44:00.229Z,2.47
2022-10-11T18:46:27.233Z,2.40
2022-10-11T18:48:55.694Z,2.75
2022-10-11T18:51:25.119Z,2.50
2022-10-11T18:53:51.997Z,2.45
2022-10-11T18:56:21.495Z,4.15
2022-10-11T18:58:50.218Z,3.10
2022-10-11T19:01:20.415Z,2.97
2022-10-11T19:03:50.152Z,2.38
2022-10-11T19:06:18.288Z,2.83
2022-10-11T19:08:53.444Z,2.50
2022-10-11T19:11:25.298Z,2.67
2022-10-11T19:14:02.351Z,2.85
2022-10-11T19:16:29.929Z,3.00
2022-10-11T19:18:57.809Z,2.65
2022-10-11T19:21:24.881Z,3.63
2022-10-11T19:23:52.064Z,4.10
2022-10-11T19:26:22.351Z,4.60
2022-10-11T19:28:53.832Z,8.80
2022-10-11T19:31:20.439Z,10.13
2022-10-11T19:33:49.462Z,9.32
2022-10-11T19:36:17.013Z,6.63
2022-10-11T19:38:46.172Z,4.82
2022-10-11T19:41:14.509Z,3.67
2022-10-11T19:43:40.997Z,3.25
2022-10-11T19:46:10.131Z,3.17
2022-10-11T19:48:38.177Z,3.03
2022-10-11T19:51:09.752Z,2.80
2022-10-11T19:53:36.664Z,2.50
2022-10-11T19:56:05.823Z,2.85
2022-10-11T19:58:37.788Z,2.90
2022-10-11T20:01:19.130Z,3.30
2022-10-11T20:03:49.070Z,3.15
2022-10-11T20:06:16.096Z,2.50
2022-10-11T20:08:44.249Z,2.47
2022-10-11T20:11:15.638Z,3.97
2022-10-11T20:13:42.600Z,2.97
2022-10-11T20:16:14.663Z,3.08
2022-10-11T20:18:41.674Z,3.30
2022-10-11T20:21:16.727Z,3.15
2022-10-11T20:23:46.152Z,4.22
2022-10-11T20:26:17.371Z,3.47
2022-10-11T20:28:44.724Z,3.70
2022-10-11T20:31:22.926Z,3.03
2022-10-11T20:33:49.674Z,3.33
2022-10-11T20:38:46.006Z,2.97
2022-10-11T20:41:18.336Z,3.10
2022-10-11T20:43:49.531Z,3.15
2022-10-11T20:46:18.595Z,3.55
2022-10-11T20:48:58.866Z,3.20
2022-10-11T20:51:28.710Z,3.85
2022-10-11T20:53:55.462Z,3.80
2022-10-11T20:58:53.999Z,3.78
2022-10-11T21:01:23.472Z,5.72
2022-10-11T21:03:50.476Z,5.75
2022-10-11T21:06:16.981Z,4.25
2022-10-11T21:08:43.510Z,4.05
2022-10-11T21:11:10.727Z,3.90
2022-10-11T21:13:37.700Z,3.72
2022-10-11T21:16:18.235Z,3.20
2022-10-11T21:18:44.759Z,3.42
2022-10-11T21:21:13.748Z,3.22
2022-10-11T21:23:43.916Z,3.20
2022-10-11T21:26:12.888Z,4.72
2022-10-11T21:28:40.614Z,2.75
2022-10-11T21:31:12.604Z,3.42
2022-10-11T21:33:40.352Z,2.90
2022-10-11T21:36:18.557Z,2.83
2022-10-11T21:38:45.547Z,3.47
2022-10-11T21:41:20.764Z,2.92
2022-10-11T21:43:48.197Z,2.83
2022-10-11T21:46:19.371Z,2.60
2022-10-11T21:48:46.363Z,2.72
2022-10-11T21:51:25.299Z,2.85
2022-10-11T21:53:52.552Z,2.70
2022-10-11T21:56:19.500Z,3.03
2022-10-11T21:58:49.967Z,3.78
2022-10-11T22:01:18.287Z,3.17
2022-10-11T22:03:45.404Z,3.80
2022-10-11T22:06:12.132Z,3.40
2022-10-11T22:11:06.592Z,3.17
2022-10-11T22:13:33.895Z,4.03
2022-10-11T22:16:05.068Z,3.22
2022-10-11T22:18:33.697Z,3.50
2022-10-11T22:21:13.533Z,3.53
2022-10-11T22:23:41.769Z,3.50
2022-10-11T22:26:11.168Z,3.70
2022-10-11T22:28:37.985Z,3.55
2022-10-11T22:31:06.180Z,3.55
2022-10-11T22:33:32.821Z,3.33
2022-10-11T22:36:01.465Z,3.03
2022-10-11T22:38:28.297Z,3.75
2022-10-11T22:43:21.472Z,3.58
2022-10-11T22:45:48.064Z,3.90
2022-10-11T22:48:14.733Z,3.33
2022-10-11T22:50:42.133Z,3.53
2022-10-11T22:53:09.094Z,3.53
2022-10-11T22:55:35.861Z,4.82
2022-10-11T23:00:28.867Z,3.70
2022-10-11T23:02:55.340Z,3.72
2022-10-11T23:05:21.912Z,3.20
2022-10-11T23:07:48.869Z,3.45
2022-10-11T23:10:15.542Z,3.45
2022-10-11T23:12:44.354Z,3.50
2022-10-11T23:15:11.629Z,3.15
2022-10-11T23:17:38.720Z,3.20
2022-10-11T23:20:06.114Z,3.17
2022-10-11T23:22:32.597Z,2.88
2022-10-11T23:24:59.064Z,3.40
2022-10-11T23:27:26.979Z,3.50
2022-10-11T23:29:53.491Z,3.67
2022-10-11T23:32:19.942Z,3.47
2022-10-11T23:34:46.482Z,3.50
2022-10-11T23:37:13.006Z,3.95
2022-10-11T23:39:39.516Z,4.13
2022-10-11T23:42:06.074Z,3.90
2022-10-11T23:44:35.588Z,3.88
2022-10-11T23:47:04.677Z,3.60
2022-10-11T23:49:33.730Z,3.80
2022-10-11T23:52:00.178Z,3.53
2022-10-11T23:54:26.816Z,3.60
2022-10-11T23:56:53.235Z,3.20
2022-10-11T23:59:21.155Z,3.60
